sensor_id;sensor_type;location;lat;lon;timestamp;P1;durP1;ratioP1;P2;durP2;ratioP2
76202;SDS011;64985;46.364;17.008;2024-02-26T00:01:48;39.28;;;18.05;;
76202;SDS011;64985;46.364;17.008;2024-02-26T00:04:50;37.05;;;17.88;;
76202;SDS011;64985;46.364;17.008;2024-02-26T00:07:52;36.28;;;17.70;;
76202;SDS011;64985;46.364;17.008;2024-02-26T00:10:55;34.60;;;16.63;;
76202;SDS011;64985;46.364;17.008;2024-02-26T00:13:57;34.55;;;17.30;;
76202;SDS011;64985;46.364;17.008;2024-02-26T00:16:59;32.40;;;16.23;;
76202;SDS011;64985;46.364;17.008;2024-02-26T00:20:02;38.40;;;16.13;;
76202;SDS011;64985;46.364;17.008;2024-02-26T00:23:10;37.92;;;18.20;;
76202;SDS011;64985;46.364;17.008;2024-02-26T00:26:12;40.53;;;18.70;;
76202;SDS011;64985;46.364;17.008;2024-02-26T00:29:14;39.40;;;18.55;;
76202;SDS011;64985;46.364;17.008;2024-02-26T00:32:17;43.30;;;19.83;;
76202;SDS011;64985;46.364;17.008;2024-02-26T00:35:19;38.47;;;17.52;;
76202;SDS011;64985;46.364;17.008;2024-02-26T00:38:22;35.30;;;16.80;;
76202;SDS011;64985;46.364;17.008;2024-02-26T00:41:24;40.70;;;19.50;;
76202;SDS011;64985;46.364;17.008;2024-02-26T00:44:26;45.53;;;19.98;;
76202;SDS011;64985;46.364;17.008;2024-02-26T00:47:29;46.97;;;20.17;;
76202;SDS011;64985;46.364;17.008;2024-02-26T00:50:31;43.20;;;20.50;;
76202;SDS011;64985;46.364;17.008;2024-02-26T00:53:34;48.85;;;21.27;;
76202;SDS011;64985;46.364;17.008;2024-02-26T00:56:36;44.78;;;20.80;;
76202;SDS011;64985;46.364;17.008;2024-02-26T00:59:38;48.47;;;21.13;;
76202;SDS011;64985;46.364;17.008;2024-02-26T01:02:41;41.72;;;19.33;;
76202;SDS011;64985;46.364;17.008;2024-02-26T01:05:44;39.08;;;18.90;;
76202;SDS011;64985;46.364;17.008;2024-02-26T01:08:46;44.30;;;17.92;;
76202;SDS011;64985;46.364;17.008;2024-02-26T01:11:48;41.40;;;19.38;;
76202;SDS011;64985;46.364;17.008;2024-02-26T01:14:50;43.97;;;19.70;;
76202;SDS011;64985;46.364;17.008;2024-02-26T01:17:53;40.30;;;18.88;;
76202;SDS011;64985;46.364;17.008;2024-02-26T01:20:55;43.22;;;18.67;;
76202;SDS011;64985;46.364;17.008;2024-02-26T01:23:57;38.90;;;17.98;;
76202;SDS011;64985;46.364;17.008;2024-02-26T01:27:00;41.05;;;18.27;;
76202;SDS011;64985;46.364;17.008;2024-02-26T01:30:05;37.35;;;17.67;;
76202;SDS011;64985;46.364;17.008;2024-02-26T01:33:10;39.25;;;17.85;;
76202;SDS011;64985;46.364;17.008;2024-02-26T01:36:12;38.50;;;18.00;;
76202;SDS011;64985;46.364;17.008;2024-02-26T01:39:14;40.22;;;18.17;;
76202;SDS011;64985;46.364;17.008;2024-02-26T01:42:17;37.85;;;16.65;;
76202;SDS011;64985;46.364;17.008;2024-02-26T01:45:20;37.13;;;17.10;;
76202;SDS011;64985;46.364;17.008;2024-02-26T01:48:28;35.38;;;17.33;;
76202;SDS011;64985;46.364;17.008;2024-02-26T01:51:30;36.40;;;16.95;;
76202;SDS011;64985;46.364;17.008;2024-02-26T01:54:37;39.53;;;17.00;;
76202;SDS011;64985;46.364;17.008;2024-02-26T01:57:41;36.50;;;17.25;;
76202;SDS011;64985;46.364;17.008;2024-02-26T02:00:45;33.35;;;15.80;;
76202;SDS011;64985;46.364;17.008;2024-02-26T02:03:48;33.45;;;17.27;;
76202;SDS011;64985;46.364;17.008;2024-02-26T02:06:50;40.35;;;17.88;;
76202;SDS011;64985;46.364;17.008;2024-02-26T02:09:54;39.67;;;18.85;;
76202;SDS011;64985;46.364;17.008;2024-02-26T02:12:56;40.20;;;19.35;;
76202;SDS011;64985;46.364;17.008;2024-02-26T02:15:59;41.15;;;19.45;;
76202;SDS011;64985;46.364;17.008;2024-02-26T02:19:01;43.17;;;19.63;;
76202;SDS011;64985;46.364;17.008;2024-02-26T02:22:04;43.28;;;20.20;;
76202;SDS011;64985;46.364;17.008;2024-02-26T02:25:06;45.60;;;19.80;;
76202;SDS011;64985;46.364;17.008;2024-02-26T02:28:09;45.92;;;19.05;;
76202;SDS011;64985;46.364;17.008;2024-02-26T02:31:11;47.30;;;20.60;;
76202;SDS011;64985;46.364;17.008;2024-02-26T02:34:14;46.10;;;20.13;;
76202;SDS011;64985;46.364;17.008;2024-02-26T02:37:17;47.42;;;20.10;;
76202;SDS011;64985;46.364;17.008;2024-02-26T02:40:19;39.95;;;19.38;;
76202;SDS011;64985;46.364;17.008;2024-02-26T02:43:21;40.38;;;18.27;;
76202;SDS011;64985;46.364;17.008;2024-02-26T02:46:23;38.67;;;17.35;;
76202;SDS011;64985;46.364;17.008;2024-02-26T02:49:26;33.05;;;15.82;;
76202;SDS011;64985;46.364;17.008;2024-02-26T02:52:28;36.50;;;17.08;;
76202;SDS011;64985;46.364;17.008;2024-02-26T02:55:30;30.88;;;15.63;;
76202;SDS011;64985;46.364;17.008;2024-02-26T02:58:33;32.00;;;15.75;;
76202;SDS011;64985;46.364;17.008;2024-02-26T03:01:35;33.08;;;15.98;;
76202;SDS011;64985;46.364;17.008;2024-02-26T03:04:38;34.83;;;16.67;;
76202;SDS011;64985;46.364;17.008;2024-02-26T03:07:40;34.83;;;16.05;;
76202;SDS011;64985;46.364;17.008;2024-02-26T03:10:42;30.10;;;14.55;;
76202;SDS011;64985;46.364;17.008;2024-02-26T03:13:45;36.97;;;15.70;;
76202;SDS011;64985;46.364;17.008;2024-02-26T03:16:47;29.88;;;15.15;;
76202;SDS011;64985;46.364;17.008;2024-02-26T03:19:50;35.42;;;16.73;;
76202;SDS011;64985;46.364;17.008;2024-02-26T03:22:55;35.17;;;15.82;;
76202;SDS011;64985;46.364;17.008;2024-02-26T03:25:57;31.10;;;15.75;;
76202;SDS011;64985;46.364;17.008;2024-02-26T03:29:00;31.48;;;14.93;;
76202;SDS011;64985;46.364;17.008;2024-02-26T03:32:04;26.02;;;13.85;;
76202;SDS011;64985;46.364;17.008;2024-02-26T03:35:07;31.17;;;14.35;;
76202;SDS011;64985;46.364;17.008;2024-02-26T03:38:10;27.90;;;13.35;;
76202;SDS011;64985;46.364;17.008;2024-02-26T03:41:12;26.50;;;13.27;;
76202;SDS011;64985;46.364;17.008;2024-02-26T03:44:14;25.75;;;12.65;;
76202;SDS011;64985;46.364;17.008;2024-02-26T03:47:16;30.50;;;12.43;;
76202;SDS011;64985;46.364;17.008;2024-02-26T03:50:18;24.83;;;12.68;;
76202;SDS011;64985;46.364;17.008;2024-02-26T03:53:20;97.85;;;12.40;;
76202;SDS011;64985;46.364;17.008;2024-02-26T03:56:22;24.67;;;11.88;;
76202;SDS011;64985;46.364;17.008;2024-02-26T03:59:25;25.08;;;12.50;;
76202;SDS011;64985;46.364;17.008;2024-02-26T04:02:28;28.33;;;13.43;;
76202;SDS011;64985;46.364;17.008;2024-02-26T04:05:30;31.70;;;15.27;;
76202;SDS011;64985;46.364;17.008;2024-02-26T04:08:33;46.67;;;14.15;;
76202;SDS011;64985;46.364;17.008;2024-02-26T04:11:35;29.17;;;12.82;;
76202;SDS011;64985;46.364;17.008;2024-02-26T04:14:37;33.90;;;14.10;;
76202;SDS011;64985;46.364;17.008;2024-02-26T04:17:40;26.45;;;13.10;;
76202;SDS011;64985;46.364;17.008;2024-02-26T04:20:43;25.77;;;12.73;;
76202;SDS011;64985;46.364;17.008;2024-02-26T04:23:45;25.35;;;12.35;;
76202;SDS011;64985;46.364;17.008;2024-02-26T04:26:48;26.45;;;12.02;;
76202;SDS011;64985;46.364;17.008;2024-02-26T04:29:51;24.35;;;11.35;;
76202;SDS011;64985;46.364;17.008;2024-02-26T04:32:53;28.35;;;11.60;;
76202;SDS011;64985;46.364;17.008;2024-02-26T04:35:56;24.75;;;12.07;;
76202;SDS011;64985;46.364;17.008;2024-02-26T04:38:58;25.63;;;11.07;;
76202;SDS011;64985;46.364;17.008;2024-02-26T04:42:00;57.00;;;12.00;;
76202;SDS011;64985;46.364;17.008;2024-02-26T04:45:05;29.50;;;10.77;;
76202;SDS011;64985;46.364;17.008;2024-02-26T04:48:09;21.60;;;11.25;;
76202;SDS011;64985;46.364;17.008;2024-02-26T04:51:12;25.73;;;11.32;;
76202;SDS011;64985;46.364;17.008;2024-02-26T04:54:14;24.02;;;11.57;;
76202;SDS011;64985;46.364;17.008;2024-02-26T04:57:17;23.90;;;10.93;;
76202;SDS011;64985;46.364;17.008;2024-02-26T05:00:22;23.80;;;11.00;;
76202;SDS011;64985;46.364;17.008;2024-02-26T05:03:24;20.65;;;10.48;;
76202;SDS011;64985;46.364;17.008;2024-02-26T05:06:26;24.27;;;10.25;;
76202;SDS011;64985;46.364;17.008;2024-02-26T05:09:29;28.70;;;12.50;;
76202;SDS011;64985;46.364;17.008;2024-02-26T05:12:31;25.88;;;12.65;;
76202;SDS011;64985;46.364;17.008;2024-02-26T05:15:36;27.13;;;12.32;;
76202;SDS011;64985;46.364;17.008;2024-02-26T05:18:39;27.33;;;11.75;;
76202;SDS011;64985;46.364;17.008;2024-02-26T05:21:41;26.35;;;12.55;;
76202;SDS011;64985;46.364;17.008;2024-02-26T05:24:45;68.25;;;13.77;;
76202;SDS011;64985;46.364;17.008;2024-02-26T05:27:47;26.80;;;12.55;;
76202;SDS011;64985;46.364;17.008;2024-02-26T05:30:49;26.00;;;12.65;;
76202;SDS011;64985;46.364;17.008;2024-02-26T05:33:52;32.80;;;14.57;;
76202;SDS011;64985;46.364;17.008;2024-02-26T05:36:54;32.45;;;14.25;;
76202;SDS011;64985;46.364;17.008;2024-02-26T05:39:56;44.17;;;17.90;;
76202;SDS011;64985;46.364;17.008;2024-02-26T05:42:58;38.45;;;17.20;;
76202;SDS011;64985;46.364;17.008;2024-02-26T05:46:01;33.47;;;15.55;;
76202;SDS011;64985;46.364;17.008;2024-02-26T05:49:03;38.58;;;17.02;;
76202;SDS011;64985;46.364;17.008;2024-02-26T05:52:06;40.75;;;17.55;;
76202;SDS011;64985;46.364;17.008;2024-02-26T05:55:08;36.28;;;17.27;;
76202;SDS011;64985;46.364;17.008;2024-02-26T05:58:11;40.05;;;18.10;;
76202;SDS011;64985;46.364;17.008;2024-02-26T06:01:15;41.05;;;17.33;;
76202;SDS011;64985;46.364;17.008;2024-02-26T06:04:18;40.38;;;17.52;;
76202;SDS011;64985;46.364;17.008;2024-02-26T06:07:21;43.10;;;18.15;;
76202;SDS011;64985;46.364;17.008;2024-02-26T06:10:23;41.88;;;17.92;;
76202;SDS011;64985;46.364;17.008;2024-02-26T06:13:25;42.75;;;19.05;;
76202;SDS011;64985;46.364;17.008;2024-02-26T06:16:28;45.75;;;20.05;;
76202;SDS011;64985;46.364;17.008;2024-02-26T06:19:30;40.63;;;18.27;;
76202;SDS011;64985;46.364;17.008;2024-02-26T06:22:32;49.50;;;20.33;;
76202;SDS011;64985;46.364;17.008;2024-02-26T06:25:35;48.58;;;20.75;;
76202;SDS011;64985;46.364;17.008;2024-02-26T06:28:37;50.78;;;20.58;;
76202;SDS011;64985;46.364;17.008;2024-02-26T06:31:42;50.67;;;20.73;;
76202;SDS011;64985;46.364;17.008;2024-02-26T06:34:45;44.15;;;20.98;;
76202;SDS011;64985;46.364;17.008;2024-02-26T06:37:47;53.25;;;21.20;;
76202;SDS011;64985;46.364;17.008;2024-02-26T06:40:52;44.05;;;20.52;;
76202;SDS011;64985;46.364;17.008;2024-02-26T06:43:55;52.00;;;21.27;;
76202;SDS011;64985;46.364;17.008;2024-02-26T06:46:58;45.28;;;21.08;;
76202;SDS011;64985;46.364;17.008;2024-02-26T06:50:03;50.35;;;21.38;;
76202;SDS011;64985;46.364;17.008;2024-02-26T06:53:06;47.42;;;21.30;;
76202;SDS011;64985;46.364;17.008;2024-02-26T06:56:09;50.28;;;22.83;;
76202;SDS011;64985;46.364;17.008;2024-02-26T06:59:11;45.80;;;21.38;;
76202;SDS011;64985;46.364;17.008;2024-02-26T07:02:13;43.08;;;20.63;;
76202;SDS011;64985;46.364;17.008;2024-02-26T07:05:16;50.05;;;21.98;;
76202;SDS011;64985;46.364;17.008;2024-02-26T07:08:19;45.28;;;21.60;;
76202;SDS011;64985;46.364;17.008;2024-02-26T07:11:22;48.35;;;20.77;;
76202;SDS011;64985;46.364;17.008;2024-02-26T07:14:24;44.28;;;20.33;;
76202;SDS011;64985;46.364;17.008;2024-02-26T07:17:27;42.63;;;20.05;;
76202;SDS011;64985;46.364;17.008;2024-02-26T07:20:29;47.92;;;20.52;;
76202;SDS011;64985;46.364;17.008;2024-02-26T07:23:32;44.20;;;19.75;;
76202;SDS011;64985;46.364;17.008;2024-02-26T07:26:35;45.10;;;19.88;;
76202;SDS011;64985;46.364;17.008;2024-02-26T07:29:37;47.17;;;20.83;;
76202;SDS011;64985;46.364;17.008;2024-02-26T07:32:39;36.65;;;16.38;;
76202;SDS011;64985;46.364;17.008;2024-02-26T07:35:42;34.80;;;15.02;;
76202;SDS011;64985;46.364;17.008;2024-02-26T07:38:44;30.52;;;15.18;;
76202;SDS011;64985;46.364;17.008;2024-02-26T07:41:48;30.13;;;14.20;;
76202;SDS011;64985;46.364;17.008;2024-02-26T07:44:53;25.13;;;14.02;;
76202;SDS011;64985;46.364;17.008;2024-02-26T07:47:55;25.42;;;13.13;;
76202;SDS011;64985;46.364;17.008;2024-02-26T07:50:58;19.50;;;10.70;;
76202;SDS011;64985;46.364;17.008;2024-02-26T07:54:02;15.10;;;7.82;;
76202;SDS011;64985;46.364;17.008;2024-02-26T07:57:04;12.32;;;7.10;;
76202;SDS011;64985;46.364;17.008;2024-02-26T08:00:08;13.95;;;7.10;;
76202;SDS011;64985;46.364;17.008;2024-02-26T08:03:11;10.60;;;5.75;;
76202;SDS011;64985;46.364;17.008;2024-02-26T08:06:16;11.15;;;5.93;;
76202;SDS011;64985;46.364;17.008;2024-02-26T08:09:18;8.43;;;5.15;;
76202;SDS011;64985;46.364;17.008;2024-02-26T08:12:20;9.48;;;5.68;;
76202;SDS011;64985;46.364;17.008;2024-02-26T08:15:23;11.38;;;5.50;;
76202;SDS011;64985;46.364;17.008;2024-02-26T08:18:25;13.98;;;5.80;;
76202;SDS011;64985;46.364;17.008;2024-02-26T08:21:27;10.32;;;5.68;;
76202;SDS011;64985;46.364;17.008;2024-02-26T08:24:30;10.45;;;6.05;;
76202;SDS011;64985;46.364;17.008;2024-02-26T08:27:33;8.32;;;5.07;;
76202;SDS011;64985;46.364;17.008;2024-02-26T08:30:35;12.52;;;6.03;;
76202;SDS011;64985;46.364;17.008;2024-02-26T08:33:37;9.95;;;5.47;;
76202;SDS011;64985;46.364;17.008;2024-02-26T08:36:39;10.27;;;4.90;;
76202;SDS011;64985;46.364;17.008;2024-02-26T08:39:42;9.95;;;5.07;;
76202;SDS011;64985;46.364;17.008;2024-02-26T08:42:44;8.05;;;4.85;;
76202;SDS011;64985;46.364;17.008;2024-02-26T08:45:47;8.20;;;4.65;;
76202;SDS011;64985;46.364;17.008;2024-02-26T08:48:49;8.98;;;4.53;;
76202;SDS011;64985;46.364;17.008;2024-02-26T08:51:52;10.65;;;4.95;;
76202;SDS011;64985;46.364;17.008;2024-02-26T08:54:54;8.25;;;4.53;;
76202;SDS011;64985;46.364;17.008;2024-02-26T08:57:56;7.10;;;4.30;;
76202;SDS011;64985;46.364;17.008;2024-02-26T09:00:58;9.77;;;5.13;;
76202;SDS011;64985;46.364;17.008;2024-02-26T09:04:01;11.18;;;5.18;;
76202;SDS011;64985;46.364;17.008;2024-02-26T09:07:03;10.20;;;5.13;;
76202;SDS011;64985;46.364;17.008;2024-02-26T09:10:05;8.20;;;4.60;;
76202;SDS011;64985;46.364;17.008;2024-02-26T09:13:10;8.20;;;4.60;;
76202;SDS011;64985;46.364;17.008;2024-02-26T09:16:12;8.32;;;4.80;;
76202;SDS011;64985;46.364;17.008;2024-02-26T09:19:15;10.88;;;5.53;;
76202;SDS011;64985;46.364;17.008;2024-02-26T09:22:17;9.48;;;4.90;;
76202;SDS011;64985;46.364;17.008;2024-02-26T09:25:20;9.00;;;4.50;;
76202;SDS011;64985;46.364;17.008;2024-02-26T09:28:22;5.80;;;3.22;;
76202;SDS011;64985;46.364;17.008;2024-02-26T09:31:27;5.25;;;2.92;;
76202;SDS011;64985;46.364;17.008;2024-02-26T09:34:29;5.18;;;2.80;;
76202;SDS011;64985;46.364;17.008;2024-02-26T09:37:31;6.15;;;3.10;;
76202;SDS011;64985;46.364;17.008;2024-02-26T09:40:35;2.95;;;1.85;;
76202;SDS011;64985;46.364;17.008;2024-02-26T09:43:39;4.15;;;2.67;;
76202;SDS011;64985;46.364;17.008;2024-02-26T09:46:45;5.85;;;2.78;;
76202;SDS011;64985;46.364;17.008;2024-02-26T09:49:49;6.20;;;2.95;;
76202;SDS011;64985;46.364;17.008;2024-02-26T09:52:54;5.97;;;3.60;;
76202;SDS011;64985;46.364;17.008;2024-02-26T09:55:59;6.90;;;4.07;;
76202;SDS011;64985;46.364;17.008;2024-02-26T09:59:01;6.05;;;3.00;;
76202;SDS011;64985;46.364;17.008;2024-02-26T10:02:15;4.28;;;2.00;;
76202;SDS011;64985;46.364;17.008;2024-02-26T10:05:20;3.30;;;1.90;;
76202;SDS011;64985;46.364;17.008;2024-02-26T10:08:24;4.70;;;1.80;;
76202;SDS011;64985;46.364;17.008;2024-02-26T10:11:27;2.75;;;1.50;;
76202;SDS011;64985;46.364;17.008;2024-02-26T10:14:33;3.28;;;1.20;;
76202;SDS011;64985;46.364;17.008;2024-02-26T10:17:35;4.75;;;2.15;;
76202;SDS011;64985;46.364;17.008;2024-02-26T10:20:38;8.88;;;3.20;;
76202;SDS011;64985;46.364;17.008;2024-02-26T10:23:40;2.80;;;1.60;;
76202;SDS011;64985;46.364;17.008;2024-02-26T10:26:46;5.95;;;2.97;;
76202;SDS011;64985;46.364;17.008;2024-02-26T10:29:48;6.28;;;3.00;;
76202;SDS011;64985;46.364;17.008;2024-02-26T10:32:53;3.45;;;1.77;;
76202;SDS011;64985;46.364;17.008;2024-02-26T10:35:56;8.43;;;4.28;;
76202;SDS011;64985;46.364;17.008;2024-02-26T10:39:01;10.10;;;4.22;;
76202;SDS011;64985;46.364;17.008;2024-02-26T10:42:05;17.05;;;7.55;;
76202;SDS011;64985;46.364;17.008;2024-02-26T10:45:13;3.83;;;2.20;;
76202;SDS011;64985;46.364;17.008;2024-02-26T10:48:16;3.63;;;2.30;;
76202;SDS011;64985;46.364;17.008;2024-02-26T10:51:20;7.22;;;3.17;;
76202;SDS011;64985;46.364;17.008;2024-02-26T10:54:29;11.00;;;5.85;;
76202;SDS011;64985;46.364;17.008;2024-02-26T10:57:35;8.27;;;4.07;;
76202;SDS011;64985;46.364;17.008;2024-02-26T11:00:45;6.03;;;3.90;;
76202;SDS011;64985;46.364;17.008;2024-02-26T11:03:49;4.93;;;3.00;;
76202;SDS011;64985;46.364;17.008;2024-02-26T11:07:11;5.30;;;2.72;;
76202;SDS011;64985;46.364;17.008;2024-02-26T11:10:14;4.88;;;2.95;;
76202;SDS011;64985;46.364;17.008;2024-02-26T11:13:18;5.70;;;2.90;;
76202;SDS011;64985;46.364;17.008;2024-02-26T11:16:23;5.10;;;2.70;;
76202;SDS011;64985;46.364;17.008;2024-02-26T11:19:27;5.82;;;3.53;;
76202;SDS011;64985;46.364;17.008;2024-02-26T11:22:33;5.95;;;2.40;;
76202;SDS011;64985;46.364;17.008;2024-02-26T11:25:36;6.20;;;3.05;;
76202;SDS011;64985;46.364;17.008;2024-02-26T11:28:41;5.32;;;2.55;;
76202;SDS011;64985;46.364;17.008;2024-02-26T11:31:43;5.72;;;2.65;;
76202;SDS011;64985;46.364;17.008;2024-02-26T11:34:46;3.83;;;2.70;;
76202;SDS011;64985;46.364;17.008;2024-02-26T11:37:51;5.32;;;3.03;;
76202;SDS011;64985;46.364;17.008;2024-02-26T11:40:55;3.97;;;2.83;;
76202;SDS011;64985;46.364;17.008;2024-02-26T11:44:03;3.05;;;2.10;;
76202;SDS011;64985;46.364;17.008;2024-02-26T11:47:21;4.03;;;2.40;;
76202;SDS011;64985;46.364;17.008;2024-02-26T11:50:32;4.72;;;2.40;;
76202;SDS011;64985;46.364;17.008;2024-02-26T11:53:45;5.38;;;2.92;;
76202;SDS011;64985;46.364;17.008;2024-02-26T11:56:50;3.80;;;2.13;;
76202;SDS011;64985;46.364;17.008;2024-02-26T11:59:52;4.93;;;2.60;;
76202;SDS011;64985;46.364;17.008;2024-02-26T12:02:55;5.20;;;2.47;;
76202;SDS011;64985;46.364;17.008;2024-02-26T12:06:03;4.13;;;2.00;;
76202;SDS011;64985;46.364;17.008;2024-02-26T12:09:05;4.90;;;1.80;;
76202;SDS011;64985;46.364;17.008;2024-02-26T12:12:09;4.05;;;2.10;;
76202;SDS011;64985;46.364;17.008;2024-02-26T12:15:12;3.42;;;1.77;;
76202;SDS011;64985;46.364;17.008;2024-02-26T12:18:17;3.58;;;1.90;;
76202;SDS011;64985;46.364;17.008;2024-02-26T12:21:20;3.28;;;1.20;;
76202;SDS011;64985;46.364;17.008;2024-02-26T12:24:22;3.40;;;1.63;;
76202;SDS011;64985;46.364;17.008;2024-02-26T12:27:25;3.83;;;1.73;;
76202;SDS011;64985;46.364;17.008;2024-02-26T12:30:27;1.90;;;1.10;;
76202;SDS011;64985;46.364;17.008;2024-02-26T12:33:33;1.88;;;1.27;;
76202;SDS011;64985;46.364;17.008;2024-02-26T12:36:36;4.38;;;1.60;;
76202;SDS011;64985;46.364;17.008;2024-02-26T12:39:40;4.43;;;1.70;;
76202;SDS011;64985;46.364;17.008;2024-02-26T12:42:42;3.67;;;1.60;;
76202;SDS011;64985;46.364;17.008;2024-02-26T12:45:44;3.00;;;1.58;;
76202;SDS011;64985;46.364;17.008;2024-02-26T12:48:49;3.00;;;1.40;;
76202;SDS011;64985;46.364;17.008;2024-02-26T12:51:52;1.45;;;1.15;;
76202;SDS011;64985;46.364;17.008;2024-02-26T12:54:54;5.78;;;1.30;;
76202;SDS011;64985;46.364;17.008;2024-02-26T12:57:57;4.28;;;2.00;;
76202;SDS011;64985;46.364;17.008;2024-02-26T13:01:00;3.60;;;1.17;;
76202;SDS011;64985;46.364;17.008;2024-02-26T13:04:03;3.85;;;1.35;;
76202;SDS011;64985;46.364;17.008;2024-02-26T13:07:08;2.78;;;1.40;;
76202;SDS011;64985;46.364;17.008;2024-02-26T13:10:10;2.55;;;1.17;;
76202;SDS011;64985;46.364;17.008;2024-02-26T13:13:16;1.73;;;1.02;;
76202;SDS011;64985;46.364;17.008;2024-02-26T13:16:19;2.83;;;1.30;;
76202;SDS011;64985;46.364;17.008;2024-02-26T13:19:25;1.63;;;1.10;;
76202;SDS011;64985;46.364;17.008;2024-02-26T13:22:29;1.55;;;1.00;;
76202;SDS011;64985;46.364;17.008;2024-02-26T13:25:35;1.63;;;0.90;;
76202;SDS011;64985;46.364;17.008;2024-02-26T13:28:45;1.90;;;1.10;;
76202;SDS011;64985;46.364;17.008;2024-02-26T13:31:47;1.50;;;0.80;;
76202;SDS011;64985;46.364;17.008;2024-02-26T13:34:49;2.00;;;1.10;;
76202;SDS011;64985;46.364;17.008;2024-02-26T13:37:51;2.28;;;0.82;;
76202;SDS011;64985;46.364;17.008;2024-02-26T13:40:54;3.83;;;1.48;;
76202;SDS011;64985;46.364;17.008;2024-02-26T13:43:57;2.83;;;1.00;;
76202;SDS011;64985;46.364;17.008;2024-02-26T13:46:59;3.90;;;1.67;;
76202;SDS011;64985;46.364;17.008;2024-02-26T13:50:02;3.95;;;1.65;;
76202;SDS011;64985;46.364;17.008;2024-02-26T13:53:04;3.35;;;1.30;;
76202;SDS011;64985;46.364;17.008;2024-02-26T13:56:06;2.40;;;1.35;;
76202;SDS011;64985;46.364;17.008;2024-02-26T13:59:09;2.70;;;1.00;;
76202;SDS011;64985;46.364;17.008;2024-02-26T14:02:11;2.67;;;1.50;;
76202;SDS011;64985;46.364;17.008;2024-02-26T14:05:13;3.17;;;1.13;;
76202;SDS011;64985;46.364;17.008;2024-02-26T14:08:16;5.25;;;1.70;;
76202;SDS011;64985;46.364;17.008;2024-02-26T14:11:18;2.67;;;1.30;;
76202;SDS011;64985;46.364;17.008;2024-02-26T14:14:21;2.15;;;1.20;;
76202;SDS011;64985;46.364;17.008;2024-02-26T14:17:23;3.22;;;1.35;;
76202;SDS011;64985;46.364;17.008;2024-02-26T14:20:25;3.78;;;2.00;;
76202;SDS011;64985;46.364;17.008;2024-02-26T14:23:28;3.08;;;1.67;;
76202;SDS011;64985;46.364;17.008;2024-02-26T14:26:30;3.30;;;1.80;;
76202;SDS011;64985;46.364;17.008;2024-02-26T14:29:33;6.28;;;2.70;;
76202;SDS011;64985;46.364;17.008;2024-02-26T14:32:35;4.45;;;2.65;;
76202;SDS011;64985;46.364;17.008;2024-02-26T14:35:39;5.85;;;2.92;;
76202;SDS011;64985;46.364;17.008;2024-02-26T14:38:42;4.75;;;2.53;;
76202;SDS011;64985;46.364;17.008;2024-02-26T14:41:44;6.60;;;2.30;;
76202;SDS011;64985;46.364;17.008;2024-02-26T14:44:46;6.43;;;3.15;;
76202;SDS011;64985;46.364;17.008;2024-02-26T14:47:49;6.40;;;2.65;;
76202;SDS011;64985;46.364;17.008;2024-02-26T14:50:51;3.50;;;1.95;;
76202;SDS011;64985;46.364;17.008;2024-02-26T14:53:54;8.95;;;4.15;;
76202;SDS011;64985;46.364;17.008;2024-02-26T14:56:56;7.45;;;3.33;;
76202;SDS011;64985;46.364;17.008;2024-02-26T14:59:59;4.50;;;1.83;;
76202;SDS011;64985;46.364;17.008;2024-02-26T15:03:01;5.22;;;2.33;;
76202;SDS011;64985;46.364;17.008;2024-02-26T15:06:03;5.20;;;2.00;;
76202;SDS011;64985;46.364;17.008;2024-02-26T15:09:06;3.78;;;2.00;;
76202;SDS011;64985;46.364;17.008;2024-02-26T15:12:08;4.60;;;2.35;;
76202;SDS011;64985;46.364;17.008;2024-02-26T15:15:12;4.43;;;1.92;;
76202;SDS011;64985;46.364;17.008;2024-02-26T15:18:15;6.32;;;2.60;;
76202;SDS011;64985;46.364;17.008;2024-02-26T15:21:18;5.38;;;2.60;;
76202;SDS011;64985;46.364;17.008;2024-02-26T15:24:20;7.75;;;2.60;;
76202;SDS011;64985;46.364;17.008;2024-02-26T15:27:23;5.78;;;3.05;;
76202;SDS011;64985;46.364;17.008;2024-02-26T15:30:25;4.05;;;2.00;;
76202;SDS011;64985;46.364;17.008;2024-02-26T15:33:29;3.63;;;2.20;;
76202;SDS011;64985;46.364;17.008;2024-02-26T15:36:33;4.50;;;2.40;;
76202;SDS011;64985;46.364;17.008;2024-02-26T15:39:36;5.70;;;2.95;;
76202;SDS011;64985;46.364;17.008;2024-02-26T15:42:38;4.72;;;2.55;;
76202;SDS011;64985;46.364;17.008;2024-02-26T15:45:40;8.77;;;3.60;;
76202;SDS011;64985;46.364;17.008;2024-02-26T15:48:43;4.88;;;2.33;;
76202;SDS011;64985;46.364;17.008;2024-02-26T15:51:45;14.40;;;5.63;;
76202;SDS011;64985;46.364;17.008;2024-02-26T15:54:48;19.80;;;9.73;;
76202;SDS011;64985;46.364;17.008;2024-02-26T15:57:50;8.38;;;4.55;;
76202;SDS011;64985;46.364;17.008;2024-02-26T16:00:52;6.45;;;3.47;;
76202;SDS011;64985;46.364;17.008;2024-02-26T16:03:54;6.80;;;4.30;;
76202;SDS011;64985;46.364;17.008;2024-02-26T16:06:58;9.85;;;6.90;;
76202;SDS011;64985;46.364;17.008;2024-02-26T16:10:06;12.05;;;6.90;;
76202;SDS011;64985;46.364;17.008;2024-02-26T16:13:08;8.75;;;5.95;;
76202;SDS011;64985;46.364;17.008;2024-02-26T16:16:16;9.85;;;6.10;;
76202;SDS011;64985;46.364;17.008;2024-02-26T16:19:22;12.35;;;6.70;;
76202;SDS011;64985;46.364;17.008;2024-02-26T16:22:25;13.40;;;6.80;;
76202;SDS011;64985;46.364;17.008;2024-02-26T16:25:27;10.60;;;6.43;;
76202;SDS011;64985;46.364;17.008;2024-02-26T16:28:30;10.05;;;5.50;;
76202;SDS011;64985;46.364;17.008;2024-02-26T16:31:32;5.78;;;3.63;;
76202;SDS011;64985;46.364;17.008;2024-02-26T16:34:35;5.05;;;2.90;;
76202;SDS011;64985;46.364;17.008;2024-02-26T16:37:37;6.75;;;4.03;;
76202;SDS011;64985;46.364;17.008;2024-02-26T16:40:40;10.40;;;5.00;;
76202;SDS011;64985;46.364;17.008;2024-02-26T16:43:43;8.70;;;4.53;;
76202;SDS011;64985;46.364;17.008;2024-02-26T16:46:45;16.05;;;9.13;;
76202;SDS011;64985;46.364;17.008;2024-02-26T16:49:48;23.63;;;12.40;;
76202;SDS011;64985;46.364;17.008;2024-02-26T16:52:50;16.27;;;8.23;;
76202;SDS011;64985;46.364;17.008;2024-02-26T16:55:52;48.17;;;24.88;;
76202;SDS011;64985;46.364;17.008;2024-02-26T16:58:55;16.13;;;7.75;;
76202;SDS011;64985;46.364;17.008;2024-02-26T17:01:57;9.30;;;4.72;;
76202;SDS011;64985;46.364;17.008;2024-02-26T17:05:02;9.68;;;5.60;;
76202;SDS011;64985;46.364;17.008;2024-02-26T17:08:05;9.52;;;4.28;;
76202;SDS011;64985;46.364;17.008;2024-02-26T17:11:08;7.40;;;3.83;;
76202;SDS011;64985;46.364;17.008;2024-02-26T17:14:11;11.48;;;5.35;;
76202;SDS011;64985;46.364;17.008;2024-02-26T17:17:14;9.35;;;4.60;;
76202;SDS011;64985;46.364;17.008;2024-02-26T17:20:16;22.65;;;10.85;;
76202;SDS011;64985;46.364;17.008;2024-02-26T17:23:19;7.90;;;4.45;;
76202;SDS011;64985;46.364;17.008;2024-02-26T17:26:22;6.40;;;3.25;;
76202;SDS011;64985;46.364;17.008;2024-02-26T17:29:26;14.00;;;7.25;;
76202;SDS011;64985;46.364;17.008;2024-02-26T17:32:28;9.07;;;4.60;;
76202;SDS011;64985;46.364;17.008;2024-02-26T17:35:30;9.75;;;4.40;;
76202;SDS011;64985;46.364;17.008;2024-02-26T17:38:32;11.15;;;4.40;;
76202;SDS011;64985;46.364;17.008;2024-02-26T17:41:35;12.32;;;4.88;;
76202;SDS011;64985;46.364;17.008;2024-02-26T17:44:38;9.75;;;4.03;;
76202;SDS011;64985;46.364;17.008;2024-02-26T17:47:40;7.78;;;3.85;;
76202;SDS011;64985;46.364;17.008;2024-02-26T17:50:42;8.52;;;4.10;;